createdAt,value
2017-06-15T00:02:22.924Z,8.53
2017-06-15T00:04:49.243Z,9.20
2017-06-15T00:07:15.584Z,10.47
2017-06-15T00:09:41.897Z,10.10
2017-06-15T00:12:08.224Z,10.47
2017-06-15T00:14:34.540Z,10.07
2017-06-15T00:17:00.886Z,9.73
2017-06-15T00:19:27.206Z,10.60
2017-06-15T00:21:53.513Z,10.50
2017-06-15T00:24:20.587Z,9.70
2017-06-15T00:26:46.911Z,10.13
2017-06-15T00:29:13.249Z,9.90
2017-06-15T00:31:39.579Z,10.80
2017-06-15T00:34:05.940Z,9.67
2017-06-15T00:36:32.255Z,10.83
2017-06-15T00:38:58.598Z,8.90
2017-06-15T00:41:24.913Z,9.67
2017-06-15T00:43:51.251Z,9.33
2017-06-15T00:46:17.580Z,10.90
2017-06-15T00:48:43.932Z,10.53
2017-06-15T00:51:10.259Z,10.40
2017-06-15T00:53:36.581Z,11.57
2017-06-15T00:56:02.919Z,11.53
2017-06-15T00:58:29.247Z,10.83
2017-06-15T01:00:55.592Z,11.47
2017-06-15T01:03:21.902Z,11.27
2017-06-15T01:05:48.245Z,11.57
2017-06-15T01:08:14.562Z,11.43
2017-06-15T01:10:40.899Z,11.77
2017-06-15T01:13:07.222Z,12.80
2017-06-15T01:15:33.577Z,11.07
2017-06-15T01:17:59.892Z,12.00
2017-06-15T01:20:26.227Z,11.80
2017-06-15T01:22:52.536Z,13.27
2017-06-15T01:25:18.853Z,12.80
2017-06-15T01:27:45.189Z,12.37
2017-06-15T01:30:11.578Z,11.80
2017-06-15T01:32:38.665Z,11.90
2017-06-15T01:35:04.996Z,13.00
2017-06-15T01:37:31.349Z,14.90
2017-06-15T01:39:57.684Z,12.33
2017-06-15T01:42:24.059Z,12.70
2017-06-15T01:44:50.436Z,11.40
2017-06-15T01:47:16.804Z,10.83
2017-06-15T01:49:43.875Z,10.80
2017-06-15T01:52:10.227Z,10.50
2017-06-15T01:54:36.549Z,12.73
2017-06-15T01:57:02.862Z,11.87
2017-06-15T01:59:29.197Z,11.30
2017-06-15T02:01:55.517Z,12.57
2017-06-15T02:04:22.600Z,12.57
2017-06-15T02:06:48.917Z,11.73
2017-06-15T02:09:15.252Z,11.20
2017-06-15T02:11:41.567Z,12.90
2017-06-15T02:14:07.903Z,11.97
2017-06-15T02:16:34.245Z,11.37
2017-06-15T02:19:00.631Z,11.50
2017-06-15T02:21:26.946Z,11.67
2017-06-15T02:23:53.277Z,13.30
2017-06-15T02:26:26.700Z,12.10
2017-06-15T02:28:53.780Z,13.00
2017-06-15T02:31:20.097Z,13.03
2017-06-15T02:33:46.411Z,12.47
2017-06-15T02:36:13.480Z,12.23
2017-06-15T02:38:39.796Z,13.33
2017-06-15T02:41:06.872Z,12.43
2017-06-15T02:43:33.199Z,13.00
2017-06-15T02:45:59.523Z,16.23
2017-06-15T02:48:25.847Z,12.70
2017-06-15T02:50:52.186Z,12.20
2017-06-15T02:53:18.501Z,13.27
2017-06-15T02:55:45.572Z,12.93
2017-06-15T02:58:11.888Z,12.30
2017-06-15T03:00:38.239Z,12.47
2017-06-15T03:03:04.550Z,12.20
2017-06-15T03:05:30.884Z,15.33
2017-06-15T03:07:57.204Z,12.47
2017-06-15T03:10:23.559Z,11.80
2017-06-15T03:12:49.873Z,13.37
2017-06-15T03:15:16.193Z,13.67
2017-06-15T03:17:42.553Z,11.53
2017-06-15T03:20:08.885Z,13.90
2017-06-15T03:22:35.229Z,12.97
2017-06-15T03:25:01.543Z,13.17
2017-06-15T03:27:34.902Z,13.23
2017-06-15T03:30:01.977Z,12.47
2017-06-15T03:32:28.303Z,11.57
2017-06-15T03:34:54.611Z,12.97
2017-06-15T03:37:21.692Z,12.33
2017-06-15T03:39:48.001Z,11.97
2017-06-15T03:42:14.336Z,12.47
2017-06-15T03:44:40.647Z,12.57
2017-06-15T03:47:07.764Z,14.10
2017-06-15T03:49:34.079Z,12.23
2017-06-15T03:52:00.398Z,12.30
2017-06-15T03:54:26.739Z,12.87
2017-06-15T03:56:53.051Z,13.10
2017-06-15T03:59:19.384Z,13.37
2017-06-15T04:01:45.695Z,13.50
2017-06-15T04:04:12.039Z,13.30
2017-06-15T04:06:38.350Z,13.23
2017-06-15T04:09:05.443Z,13.97
2017-06-15T04:11:31.764Z,13.73
2017-06-15T04:13:58.100Z,13.27
2017-06-15T04:16:24.435Z,13.83
2017-06-15T04:18:50.768Z,14.37
2017-06-15T04:21:17.095Z,14.00
2017-06-15T04:23:43.410Z,14.60
2017-06-15T04:26:09.764Z,19.30
2017-06-15T04:28:36.077Z,15.10
2017-06-15T04:31:02.421Z,13.40
2017-06-15T04:33:28.730Z,13.07
2017-06-15T04:35:55.066Z,17.43
2017-06-15T04:38:21.375Z,13.67
2017-06-15T04:40:47.711Z,13.60
2017-06-15T04:43:14.033Z,13.33
2017-06-15T04:45:40.369Z,16.20
2017-06-15T04:48:06.694Z,14.23
2017-06-15T04:50:33.024Z,13.03
2017-06-15T04:52:59.345Z,13.30
2017-06-15T04:55:26.416Z,15.90
2017-06-15T04:57:52.731Z,13.50
2017-06-15T05:00:19.053Z,13.50
2017-06-15T05:02:46.187Z,13.00
2017-06-15T05:05:12.503Z,13.70
2017-06-15T05:07:38.836Z,13.27
2017-06-15T05:10:05.196Z,13.00
2017-06-15T05:12:32.276Z,16.73
2017-06-15T05:14:58.591Z,14.30
2017-06-15T05:17:24.956Z,13.30
2017-06-15T05:19:51.279Z,14.23
2017-06-15T05:22:17.625Z,13.90
2017-06-15T05:24:43.947Z,14.17
2017-06-15T05:27:10.286Z,12.37
2017-06-15T05:29:36.605Z,13.13
2017-06-15T05:32:02.928Z,13.33
2017-06-15T05:34:29.256Z,17.17
2017-06-15T05:36:55.568Z,13.67
2017-06-15T05:39:21.904Z,13.97
2017-06-15T05:41:48.244Z,12.57
2017-06-15T05:44:14.617Z,13.70
2017-06-15T05:46:40.937Z,12.00
2017-06-15T05:49:07.297Z,12.10
2017-06-15T05:51:34.358Z,12.20
2017-06-15T05:54:00.690Z,13.07
2017-06-15T05:56:27.001Z,12.30
2017-06-15T05:58:54.057Z,12.70
2017-06-15T06:01:21.181Z,13.50
2017-06-15T06:03:47.497Z,13.00
2017-06-15T06:06:13.835Z,13.80
2017-06-15T06:08:40.155Z,11.80
2017-06-15T06:11:06.523Z,12.30
2017-06-15T06:13:33.580Z,13.87
2017-06-15T06:16:00.697Z,12.80
2017-06-15T06:18:27.011Z,13.77
2017-06-15T06:20:53.332Z,14.00
2017-06-15T06:23:19.672Z,12.70
2017-06-15T06:25:45.995Z,13.10
2017-06-15T06:28:12.335Z,12.07
2017-06-15T06:30:38.653Z,13.40
2017-06-15T06:33:04.999Z,12.77
2017-06-15T06:35:31.312Z,12.13
2017-06-15T06:37:57.646Z,13.90
2017-06-15T06:40:23.959Z,12.77
2017-06-15T06:42:50.299Z,12.10
2017-06-15T06:45:16.623Z,12.97
2017-06-15T06:47:42.946Z,13.33
2017-06-15T06:50:09.290Z,13.90
2017-06-15T06:52:35.597Z,13.77
2017-06-15T06:55:01.925Z,12.63
2017-06-15T06:57:28.235Z,12.07
2017-06-15T06:59:55.317Z,14.80
2017-06-15T07:02:21.636Z,11.70
2017-06-15T07:04:47.983Z,13.20
2017-06-15T07:07:14.325Z,12.63
2017-06-15T07:09:40.675Z,12.27
2017-06-15T07:12:06.994Z,15.60
2017-06-15T07:14:33.306Z,11.20
2017-06-15T07:16:59.676Z,13.67
2017-06-15T07:19:25.989Z,11.77
2017-06-15T07:21:52.331Z,11.77
2017-06-15T07:24:18.651Z,14.43
2017-06-15T07:26:44.992Z,11.30
2017-06-15T07:29:11.308Z,11.83
2017-06-15T07:31:37.644Z,11.37
2017-06-15T07:34:03.953Z,11.13
2017-06-15T07:36:30.315Z,11.63
2017-06-15T07:38:56.632Z,11.10
2017-06-15T07:41:22.985Z,9.73
2017-06-15T07:43:49.308Z,13.93
2017-06-15T07:46:15.634Z,10.03
2017-06-15T07:48:41.980Z,11.27
2017-06-15T07:51:08.290Z,11.93
2017-06-15T07:53:34.624Z,11.17
2017-06-15T07:56:00.934Z,12.43
2017-06-15T07:58:27.265Z,10.90
2017-06-15T08:00:53.576Z,11.20
2017-06-15T08:03:19.921Z,9.93
2017-06-15T08:05:46.242Z,10.63
2017-06-15T08:08:12.588Z,12.20
2017-06-15T08:10:38.907Z,11.50
2017-06-15T08:13:05.241Z,10.53
2017-06-15T08:15:31.596Z,9.20
2017-06-15T08:17:57.912Z,9.53
2017-06-15T08:20:24.263Z,10.23
2017-06-15T08:22:50.573Z,9.77
2017-06-15T08:25:16.920Z,9.63
2017-06-15T08:27:43.234Z,9.60
2017-06-15T08:30:09.580Z,9.50
2017-06-15T08:32:35.897Z,9.80
2017-06-15T08:35:02.254Z,9.43
2017-06-15T08:37:28.563Z,14.30
2017-06-15T08:39:54.889Z,9.90
2017-06-15T08:42:21.231Z,10.00
2017-06-15T08:45:02.474Z,9.97
2017-06-15T08:47:28.809Z,9.70
2017-06-15T08:49:55.127Z,9.50
2017-06-15T08:52:21.459Z,9.00
2017-06-15T08:54:47.777Z,11.53
2017-06-15T08:57:14.875Z,8.90
2017-06-15T08:59:41.219Z,9.63
2017-06-15T09:02:07.588Z,9.50
2017-06-15T09:04:34.639Z,7.97
2017-06-15T09:07:01.722Z,9.13
2017-06-15T09:09:28.035Z,9.50
2017-06-15T09:11:54.401Z,9.63
2017-06-15T09:14:20.711Z,8.37
2017-06-15T09:16:47.053Z,8.60
2017-06-15T09:19:13.382Z,7.70
2017-06-15T09:21:39.696Z,8.77
2017-06-15T09:24:06.031Z,9.27
2017-06-15T09:26:32.336Z,9.73
2017-06-15T09:28:59.412Z,10.00
2017-06-15T09:31:25.724Z,8.83
2017-06-15T09:33:52.068Z,10.90
2017-06-15T09:36:18.438Z,8.40
2017-06-15T09:38:44.779Z,8.43
2017-06-15T09:41:11.099Z,8.43
2017-06-15T09:43:37.442Z,9.50
2017-06-15T09:46:03.794Z,9.50
2017-06-15T09:48:30.853Z,8.47
2017-06-15T09:50:57.188Z,7.10
2017-06-15T09:53:23.504Z,7.60
2017-06-15T09:55:50.584Z,8.30
2017-06-15T09:58:16.902Z,7.40
2017-06-15T10:00:43.250Z,7.33
2017-06-15T10:03:09.578Z,7.83
2017-06-15T10:05:35.922Z,8.37
2017-06-15T10:08:02.250Z,8.17
2017-06-15T10:10:28.589Z,8.67
2017-06-15T10:12:54.909Z,9.30
2017-06-15T10:15:21.230Z,9.40
2017-06-15T10:17:47.585Z,9.40
2017-06-15T10:20:13.956Z,10.00
2017-06-15T10:22:41.038Z,8.63
2017-06-15T10:25:07.348Z,9.33
2017-06-15T10:27:33.680Z,9.97
2017-06-15T10:29:59.993Z,8.20
2017-06-15T10:32:27.079Z,9.37
2017-06-15T10:34:53.392Z,9.33
2017-06-15T10:37:19.732Z,9.20
2017-06-15T10:39:46.052Z,10.90
2017-06-15T10:42:12.408Z,12.07
2017-06-15T10:44:38.719Z,9.23
2017-06-15T10:47:05.028Z,10.20
2017-06-15T10:49:32.109Z,10.07
2017-06-15T10:51:58.415Z,9.73
2017-06-15T10:54:24.769Z,10.57
2017-06-15T10:56:51.088Z,9.77
2017-06-15T10:59:17.416Z,10.07
2017-06-15T11:01:43.734Z,9.23
2017-06-15T11:04:10.072Z,8.60
2017-06-15T11:06:36.394Z,9.30
2017-06-15T11:09:03.539Z,8.10
2017-06-15T11:11:30.599Z,8.80
2017-06-15T11:13:56.907Z,8.50
2017-06-15T11:16:24.020Z,8.20
2017-06-15T11:18:50.334Z,8.30
2017-06-15T11:21:16.681Z,9.20
2017-06-15T11:23:43.000Z,8.00
2017-06-15T11:26:09.341Z,7.80
2017-06-15T11:28:35.656Z,7.60
2017-06-15T11:31:02.003Z,8.07
2017-06-15T11:33:28.325Z,7.50
2017-06-15T11:35:54.640Z,9.23
2017-06-15T11:38:20.975Z,10.87
2017-06-15T11:40:47.448Z,9.33
2017-06-15T11:43:13.793Z,8.00
2017-06-15T11:45:40.861Z,7.80
2017-06-15T11:48:07.192Z,7.37
2017-06-15T11:50:33.508Z,8.27
2017-06-15T11:53:00.599Z,7.80
2017-06-15T11:55:26.911Z,8.27
2017-06-15T11:57:53.244Z,6.87
2017-06-15T12:00:19.560Z,6.50
2017-06-15T12:02:45.891Z,7.63
2017-06-15T12:05:12.230Z,7.23
2017-06-15T12:07:38.544Z,7.40
2017-06-15T12:10:05.620Z,8.33
2017-06-15T12:12:31.938Z,6.37
2017-06-15T12:14:58.278Z,6.73
2017-06-15T12:17:24.674Z,7.00
2017-06-15T12:19:51.771Z,7.10
2017-06-15T12:22:18.085Z,8.57
2017-06-15T12:24:44.435Z,6.60
2017-06-15T12:27:10.752Z,6.97
2017-06-15T12:29:37.090Z,7.20
2017-06-15T12:32:03.408Z,7.73
2017-06-15T12:34:29.756Z,7.50
2017-06-15T12:36:56.086Z,5.73
2017-06-15T12:39:22.401Z,6.93
2017-06-15T12:41:48.747Z,6.73
2017-06-15T12:44:15.444Z,6.50
2017-06-15T12:46:42.533Z,8.00
2017-06-15T12:49:08.855Z,6.00
2017-06-15T12:51:35.199Z,6.43
2017-06-15T12:54:01.510Z,6.30
2017-06-15T12:56:27.852Z,5.57
2017-06-15T12:58:54.178Z,7.93
2017-06-15T13:01:20.544Z,6.23
2017-06-15T13:03:46.868Z,8.43
2017-06-15T13:06:13.211Z,6.80
2017-06-15T13:08:39.517Z,6.00
2017-06-15T13:11:05.852Z,6.67
2017-06-15T13:13:32.169Z,6.57
2017-06-15T13:15:58.536Z,5.67
2017-06-15T13:18:24.849Z,6.03
2017-06-15T13:20:51.156Z,6.30
2017-06-15T13:23:17.490Z,6.80
2017-06-15T13:25:43.803Z,6.33
2017-06-15T13:28:10.133Z,8.50
2017-06-15T13:30:36.459Z,5.43
2017-06-15T13:33:02.801Z,5.80
2017-06-15T13:35:29.099Z,5.30
2017-06-15T13:37:56.174Z,4.93
2017-06-15T13:40:22.484Z,5.00
2017-06-15T13:42:48.831Z,5.37
2017-06-15T13:45:15.892Z,4.50
2017-06-15T13:47:42.946Z,4.30
2017-06-15T13:50:09.289Z,5.50
2017-06-15T13:52:35.590Z,4.30
2017-06-15T13:55:02.666Z,4.80
2017-06-15T13:57:28.972Z,4.03
2017-06-15T13:59:56.044Z,4.10
2017-06-15T14:02:22.357Z,3.80
2017-06-15T14:04:48.700Z,7.10
2017-06-15T14:07:15.004Z,4.03
2017-06-15T14:09:42.076Z,3.97
2017-06-15T14:12:08.372Z,4.53
2017-06-15T14:14:34.697Z,5.67
2017-06-15T14:17:01.023Z,5.33
2017-06-15T14:19:27.330Z,5.13
2017-06-15T14:21:53.663Z,4.43
2017-06-15T14:24:19.962Z,4.63
2017-06-15T14:26:46.312Z,3.50
2017-06-15T14:29:12.617Z,3.83
2017-06-15T14:31:38.949Z,3.30
2017-06-15T14:34:05.296Z,3.20
2017-06-15T14:36:31.626Z,4.17
2017-06-15T14:38:57.927Z,3.20
2017-06-15T14:41:25.009Z,3.57
2017-06-15T14:43:51.318Z,5.73
2017-06-15T14:46:17.623Z,4.00
2017-06-15T14:48:44.692Z,4.67
2017-06-15T14:51:10.995Z,5.43
2017-06-15T14:53:38.071Z,5.60
2017-06-15T14:56:04.378Z,5.30
2017-06-15T14:58:31.443Z,5.57
2017-06-15T15:00:58.498Z,5.07
2017-06-15T15:03:24.823Z,5.97
2017-06-15T15:05:51.132Z,5.20
2017-06-15T15:08:18.255Z,4.70
2017-06-15T15:10:44.570Z,4.57
2017-06-15T15:13:10.907Z,5.03
2017-06-15T15:15:37.256Z,4.70
2017-06-15T15:18:03.595Z,4.57
2017-06-15T15:20:29.942Z,5.87
2017-06-15T15:22:57.003Z,5.43
2017-06-15T15:25:23.344Z,6.60
2017-06-15T15:27:49.655Z,5.00
2017-06-15T15:30:16.739Z,5.23
2017-06-15T15:32:43.057Z,6.87
2017-06-15T15:35:09.391Z,7.80
2017-06-15T15:37:35.707Z,8.00
2017-06-15T15:40:02.095Z,5.03
2017-06-15T15:42:28.408Z,6.90
2017-06-15T15:44:54.732Z,5.00
2017-06-15T15:47:21.078Z,5.60
2017-06-15T15:49:47.424Z,5.87
2017-06-15T15:52:13.766Z,5.90
2017-06-15T15:54:40.090Z,5.37
2017-06-15T15:57:06.429Z,6.17
2017-06-15T15:59:33.490Z,6.07
2017-06-15T16:02:00.563Z,6.60
2017-06-15T16:04:26.872Z,8.60
2017-06-15T16:06:53.954Z,6.47
2017-06-15T16:09:20.272Z,8.07
2017-06-15T16:11:46.652Z,7.03
2017-06-15T16:14:12.972Z,6.90
2017-06-15T16:16:39.355Z,6.53
2017-06-15T16:19:05.672Z,7.00
2017-06-15T16:21:32.734Z,7.00
2017-06-15T16:23:59.084Z,9.20
2017-06-15T16:26:25.407Z,7.30
2017-06-15T16:28:51.752Z,7.17
2017-06-15T16:31:18.071Z,8.00
2017-06-15T16:33:44.416Z,8.83
2017-06-15T16:36:10.768Z,8.43
2017-06-15T16:38:37.117Z,9.63
2017-06-15T16:41:03.433Z,7.80
2017-06-15T16:43:29.765Z,11.27
2017-06-15T16:45:56.092Z,7.47
2017-06-15T16:48:22.450Z,10.03
2017-06-15T16:50:49.506Z,8.93
2017-06-15T16:53:16.575Z,6.97
2017-06-15T16:55:42.913Z,7.20
2017-06-15T16:58:09.227Z,7.43
2017-06-15T17:00:35.564Z,7.73
2017-06-15T17:03:01.882Z,7.50
2017-06-15T17:05:28.226Z,8.40
2017-06-15T17:07:54.552Z,7.77
2017-06-15T17:10:20.887Z,8.53
2017-06-15T17:12:47.218Z,8.00
2017-06-15T17:15:13.559Z,8.60
2017-06-15T17:17:39.903Z,8.00
2017-06-15T17:20:06.248Z,7.90
2017-06-15T17:22:32.565Z,8.33
2017-06-15T17:24:58.941Z,8.97
2017-06-15T17:27:26.013Z,8.57
2017-06-15T17:29:52.343Z,9.80
2017-06-15T17:32:18.672Z,8.27
2017-06-15T17:34:44.980Z,12.03
2017-06-15T17:37:12.072Z,9.57
2017-06-15T17:39:38.383Z,11.57
2017-06-15T17:42:04.719Z,10.07
2017-06-15T17:44:31.051Z,9.53
2017-06-15T17:46:57.390Z,9.73
2017-06-15T17:49:23.715Z,8.37
2017-06-15T17:51:50.025Z,8.90
2017-06-15T17:54:17.093Z,7.70
2017-06-15T17:56:43.409Z,8.80
2017-06-15T17:59:09.754Z,8.87
2017-06-15T18:01:36.083Z,8.70
2017-06-15T18:04:02.422Z,7.83
2017-06-15T18:06:28.732Z,8.47
2017-06-15T18:08:55.891Z,8.90
2017-06-15T18:11:22.211Z,7.83
2017-06-15T18:13:48.556Z,11.60
2017-06-15T18:16:14.887Z,10.60
2017-06-15T18:18:41.199Z,12.30
2017-06-15T18:21:08.284Z,13.23
2017-06-15T18:23:34.595Z,11.90
2017-06-15T18:26:00.940Z,11.87
2017-06-15T18:28:27.264Z,11.83
2017-06-15T18:30:53.607Z,13.97
2017-06-15T18:33:19.925Z,13.07
2017-06-15T18:35:46.253Z,14.53
2017-06-15T18:38:12.573Z,13.20
2017-06-15T18:40:38.925Z,14.03
2017-06-15T18:43:05.248Z,14.17
2017-06-15T18:45:31.602Z,13.00
2017-06-15T18:47:57.916Z,17.17
2017-06-15T18:50:24.231Z,11.60
2017-06-15T18:52:50.561Z,12.20
2017-06-15T18:55:16.878Z,12.90
2017-06-15T18:57:43.227Z,11.67
2017-06-15T19:00:09.554Z,11.20
2017-06-15T19:02:35.894Z,11.33
2017-06-15T19:05:02.219Z,10.40
2017-06-15T19:07:28.560Z,11.90
2017-06-15T19:09:54.884Z,11.33
2017-06-15T19:12:21.243Z,13.07
2017-06-15T19:14:47.563Z,11.57
2017-06-15T19:17:13.897Z,10.67
2017-06-15T19:19:40.223Z,12.17
2017-06-15T19:22:06.545Z,9.80
2017-06-15T19:24:32.885Z,11.13
2017-06-15T19:26:59.225Z,8.10
2017-06-15T19:29:25.562Z,10.00
2017-06-15T19:31:51.874Z,8.90
2017-06-15T19:34:18.214Z,9.10
2017-06-15T19:36:44.530Z,8.53
2017-06-15T19:39:10.868Z,8.83
2017-06-15T19:41:37.180Z,10.17
2017-06-15T19:44:03.523Z,8.60
2017-06-15T19:46:29.828Z,9.00
2017-06-15T19:48:56.180Z,7.73
2017-06-15T19:51:22.550Z,9.73
2017-06-15T19:53:48.865Z,8.00
2017-06-15T19:56:15.212Z,6.53
2017-06-15T19:58:41.529Z,5.83
2017-06-15T20:01:07.874Z,6.60
2017-06-15T20:03:34.194Z,6.23
2017-06-15T20:06:00.531Z,6.37
2017-06-15T20:08:26.849Z,5.17
2017-06-15T20:10:53.185Z,8.10
2017-06-15T20:13:19.491Z,5.00
2017-06-15T20:15:45.871Z,5.00
2017-06-15T20:18:12.933Z,6.77
2017-06-15T20:20:40.032Z,5.60
2017-06-15T20:23:06.410Z,5.67
2017-06-15T20:25:38.837Z,6.87
2017-06-15T20:28:05.218Z,5.03
2017-06-15T20:30:32.325Z,5.00
2017-06-15T20:32:58.687Z,5.37
2017-06-15T20:35:25.746Z,6.60
2017-06-15T20:37:52.820Z,9.30
2017-06-15T20:40:19.136Z,6.37
2017-06-15T20:42:45.470Z,6.27
2017-06-15T20:45:11.787Z,5.47
2017-06-15T20:47:38.870Z,5.00
2017-06-15T20:50:05.189Z,7.23
2017-06-15T20:52:31.531Z,7.40
2017-06-15T20:54:57.861Z,6.57
2017-06-15T20:57:24.173Z,6.03
2017-06-15T20:59:53.147Z,6.27
2017-06-15T21:02:23.137Z,4.67
2017-06-15T21:04:55.982Z,5.50
2017-06-15T21:07:25.003Z,5.50
2017-06-15T21:09:53.585Z,5.43
2017-06-15T21:12:21.528Z,6.17
2017-06-15T21:14:50.111Z,5.87
2017-06-15T21:17:19.666Z,4.37
2017-06-15T21:19:50.092Z,4.57
2017-06-15T21:22:18.439Z,4.83
2017-06-15T21:24:47.847Z,4.37
2017-06-15T21:27:16.040Z,5.83
2017-06-15T21:29:44.274Z,5.17
2017-06-15T21:32:15.149Z,6.90
2017-06-15T21:34:43.988Z,5.13
2017-06-15T21:37:12.200Z,4.80
2017-06-15T21:39:38.572Z,5.90
2017-06-15T21:42:05.683Z,5.47
2017-06-15T21:44:32.014Z,8.53
2017-06-15T21:46:58.359Z,5.23
2017-06-15T21:49:24.712Z,5.27
2017-06-15T21:51:51.811Z,5.20
2017-06-15T21:54:18.164Z,7.57
2017-06-15T21:56:44.507Z,5.10
2017-06-15T21:59:11.575Z,5.33
2017-06-15T22:01:37.946Z,5.07
2017-06-15T22:04:04.311Z,5.80
2017-06-15T22:06:31.394Z,6.93
2017-06-15T22:08:57.752Z,5.23
2017-06-15T22:11:24.081Z,5.43
2017-06-15T22:13:50.430Z,7.43
2017-06-15T22:16:16.785Z,5.90
2017-06-15T22:18:43.137Z,5.07
2017-06-15T22:21:09.464Z,6.20
2017-06-15T22:23:35.819Z,5.57
2017-06-15T22:26:02.897Z,6.17
2017-06-15T22:28:29.267Z,6.33
2017-06-15T22:30:55.596Z,5.20
2017-06-15T22:33:21.946Z,6.07
2017-06-15T22:35:48.296Z,5.60
2017-06-15T22:38:15.372Z,5.70
2017-06-15T22:40:41.731Z,7.50
2017-06-15T22:43:08.064Z,5.43
2017-06-15T22:45:34.414Z,5.30
2017-06-15T22:48:00.748Z,6.10
2017-06-15T22:50:27.096Z,5.77
2017-06-15T22:52:54.191Z,6.37
2017-06-15T22:55:20.551Z,5.67
2017-06-15T22:57:46.880Z,6.93
2017-06-15T23:00:13.240Z,6.53
2017-06-15T23:02:52.532Z,5.87
2017-06-15T23:05:18.904Z,5.93
2017-06-15T23:07:45.979Z,5.57
2017-06-15T23:10:12.302Z,5.80
2017-06-15T23:12:38.659Z,5.53
2017-06-15T23:15:04.989Z,7.33
2017-06-15T23:17:31.356Z,5.90
2017-06-15T23:19:57.685Z,6.17
2017-06-15T23:22:24.040Z,6.30
2017-06-15T23:24:51.104Z,6.10
2017-06-15T23:27:17.460Z,6.37
2017-06-15T23:29:43.783Z,6.03
2017-06-15T23:32:10.129Z,8.60
2017-06-15T23:34:36.454Z,6.23
2017-06-15T23:37:02.809Z,5.90
2017-06-15T23:39:29.140Z,6.43
2017-06-15T23:41:55.471Z,6.97
2017-06-15T23:44:21.823Z,6.93
2017-06-15T23:46:48.152Z,7.10
2017-06-15T23:49:14.499Z,6.93
2017-06-15T23:51:41.571Z,6.20
2017-06-15T23:54:07.921Z,5.87
2017-06-15T23:56:34.249Z,7.40
2017-06-15T23:59:00.602Z,6.20
